Country
Station

 

Weather  for  Kajaani  -  Finland    Finland

  
-2 °C (28 °F)
    
 
 

Current METAR for Kajaani is :

EFKI 240050Z AUTO 26014KT CAVOK M02/M05 Q0975

 

This is a report for Kajaani - Finland.
 
The report was made 23 minutes ago, at 00:50 UTC .
The wind was blowing at a speed of 7.2 meters per second (16.1 miles per hour) from west (260°).
 
The temperature was -2 °C (28 °F), with a dew-point at -5 °C (23 °F).
The temperature felt like -9 °C (16 °F).
 
The atmospheric pressure was 975 hPa (28.79 inHg).
The relative humidity was 79.9%.
 
There were no clouds below 1500 meter (5000 feet) and no cumulonimbus clouds.
 
The overall visibility was greater than 10 kilometers (6.2 miles).
 

 
 
 
 

Country :   A   B   C   D   E   F   G   H   I   J   K   L   M   N   O   P   Q   R   S   T   U   V   W   Y   Z

 

Site Info  |  Disclaimer  |  Credits  |  Privacy
Contact us  |  Add to favorites
© 2013-2020 METARs - All rights reserved